Accueil
METAR-TAF:

METAR-TAF

Aéroports :

Dodge City, Kansas, États-Unis

latitude: 37-46-22N, longitude: 099-58-11W, altitude: 790 m

Observation

Le bulletin a été fait il y a 32 minutes, à 00:52 UTC
Vent 6 kt de est
Température 27°C
Humidité 48%
Pression 1020 hPa
Visibilité: 16.1 km
Ciel clair

METAR: KDDC 220052Z AUTO 09006KT 10SM CLR 27/15 A3011 RMK AO2 SLP170 T02670150

Heure: 20:24 (01:24 UTC)

Prévision

Le bulletin a été fait il y a 2 heures et 1 minutes, à 23:23 UTC
Prévision valable du 22 à 00 UTC au 22 à 24 UTC
Vent 5 kt de direction variable
Visibilité: 10 km
Nuages épars à une hauteur de 25000 ft

TAF: KDDC 212323Z 2200/2224 VRB05KT P6SM SCT250

Observations et prévisions météorologiques de plus de 4000 aéroports (messages METAR et TAF).

Les stations disponibles sont représentées par des disques jaunes et rouges sur la carte.

Passer la souris dessus pour voir le nom de la station.

Cliquer dessus pour voir les observations et prévisions météorologiques.

Pour changer de carte: cliquez sur les boutons verts avec une croix noire pour zoomer, sur le bouton vert avec un tiret pour effectuer un zoom arrière, ou sur les flèches vertes pour les cartes adjacentes.


METAR-TAF: